Aviation Digital Data Service (ADDS)

Output produced by METARs form (1855 UTC 02 September 2014)
found at http://aviationweather.gov/adds/metars/
 
KBPT 021720Z 0218/0318 17013KT P6SM VCTS SCT028CB 
     TEMPO 0221/0224 5SM -TSRA BKN025CB 
     FM030300 15007KT P6SM BKN250 
     FM030900 10004KT P6SM OVC250 
     FM031200 07004KT P6SM VCSH SCT025